Terminal Aerodrome Forecast
Issued by NWS Tampa Bay Area, FL

Home | Current Version | Previous Version | Text Only | Print | Product List | Glossary On
Versions: 1 2 3 4 5 6 7 8 9 10 11 12 13
760
FTUS42 KTBW 131132
TAFSRQ
TAF
KSRQ 131132Z 1312/1412 31008KT P6SM SCT025
      TEMPO 1312/1314 BKN025
     FM131400 35012G18KT P6SM SKC
     FM140000 01008KT P6SM SKC
     FM140600 05007KT P6SM SKC=

USA.gov is the U.S. government's official web portal to all federal, state and local government web resources and services.